Time;durP1;ratioP1;P1;durP2;ratioP2;P2;SDS_P1;SDS_P2;PMS_P1;PMS_P2;Temp;Humidity;BMP_temperature;BMP_pressure;BME280_temperature;BME280_humidity;BME280_pressure;Samples;Min_cycle;Max_cycle;Signal;HPM_P1;HPM_P2
2022/09/30 00:01:18;;;;;;;11.98;9.27;;;;;;;11.52;100.00;99977.59;5073830;28;20020;-84
2022/09/30 00:03:44;;;;;;;12.02;8.90;;;;;;;11.43;100.00;99978.34;5073569;28;20441;-85
2022/09/30 00:06:10;;;;;;;11.25;8.55;;;;;;;11.45;100.00;99978.19;5072468;28;20029;-84
2022/09/30 00:08:38;;;;;;;14.43;8.90;;;;;;;11.34;100.00;99975.59;5073247;28;20021;-84
2022/09/30 00:11:15;;;;;;;13.95;9.32;;;;;;;11.34;100.00;99971.16;5073542;28;20497;-84
2022/09/30 00:13:41;;;;;;;11.05;8.25;;;;;;;11.34;100.00;99970.34;5073326;28;20025;-84
2022/09/30 00:16:08;;;;;;;8.60;7.63;;;;;;;11.31;100.00;99966.13;5073353;28;20053;-84
2022/09/30 00:18:35;;;;;;;9.80;8.32;;;;;;;11.22;100.00;99970.34;5073285;28;20028;-84
2022/09/30 00:21:01;;;;;;;10.43;8.10;;;;;;;11.17;100.00;99953.25;5072161;28;20429;-85
2022/09/30 00:23:27;;;;;;;10.88;8.52;;;;;;;11.23;100.00;99958.03;5073285;28;20021;-85
2022/09/30 00:26:01;;;;;;;11.60;8.82;;;;;;;11.20;100.00;99951.22;5071813;28;20386;-84
2022/09/30 00:28:28;;;;;;;9.25;8.10;;;;;;;11.14;100.00;99958.72;5072891;28;20406;-84
2022/09/30 00:30:58;;;;;;;11.80;8.80;;;;;;;11.03;100.00;99957.78;5072709;28;20020;-84
2022/09/30 00:33:23;;;;;;;10.82;8.55;;;;;;;11.01;100.00;99964.09;5073008;28;20021;-85
2022/09/30 00:35:49;;;;;;;13.77;9.55;;;;;;;10.95;100.00;99954.91;5071503;28;20032;-85
2022/09/30 00:38:14;;;;;;;12.18;9.02;;;;;;;10.98;100.00;99959.06;5072990;28;20462;-85
2022/09/30 00:40:40;;;;;;;9.32;8.13;;;;;;;10.94;100.00;99969.00;5073355;28;20473;-84
2022/09/30 00:43:16;;;;;;;14.00;10.05;;;;;;;10.82;100.00;99967.28;5073038;28;20032;-84
2022/09/30 00:45:48;;;;;;;;;;;;;;;10.62;100.00;99974.03;5073102;28;20138;-84
2022/09/30 00:48:18;;;;;;;14.02;9.30;;;;;;;10.75;100.00;99973.97;5072376;28;20507;-84
2022/09/30 00:50:48;;;;;;;13.73;10.00;;;;;;;10.73;100.00;99970.63;5071157;28;20133;-84
2022/09/30 00:53:45;;;;;;;10.52;8.88;;;;;;;10.79;100.00;99973.63;5072351;28;20031;-84
2022/09/30 00:56:16;;;;;;;10.98;8.88;;;;;;;10.81;100.00;99976.13;5072436;28;20386;-85
2022/09/30 00:58:50;;;;;;;11.85;9.30;;;;;;;10.83;100.00;99966.34;5072176;28;20029;-84
2022/09/30 01:01:16;;;;;;;10.35;9.25;;;;;;;10.83;100.00;99977.69;5072204;28;20447;-84
2022/09/30 01:03:48;;;;;;;10.60;8.98;;;;;;;10.84;100.00;99983.75;5070870;28;20024;-84
2022/09/30 01:06:15;;;;;;;15.13;12.07;;;;;;;10.76;100.00;99986.97;5072272;28;20021;-84
2022/09/30 01:08:40;;;;;;;12.30;10.00;;;;;;;10.76;100.00;99986.13;5072206;28;20434;-84
2022/09/30 01:11:06;;;;;;;15.85;10.23;;;;;;;10.83;100.00;99982.94;5072119;28;20093;-84
2022/09/30 01:13:33;;;;;;;11.77;9.82;;;;;;;10.87;100.00;99967.78;5072020;28;20059;-84
2022/09/30 01:16:16;;;;;;;10.90;9.25;;;;;;;10.88;100.00;99966.81;5071955;28;20027;-84
2022/09/30 01:19:07;;;;;;;10.20;8.63;;;;;;;10.87;100.00;99962.53;5070853;28;20032;-84
2022/09/30 01:21:59;;;;;;;10.55;9.45;;;;;;;10.86;100.00;99971.34;5072022;28;20044;-85
2022/09/30 01:24:39;;;;;;;13.50;9.70;;;;;;;10.86;100.00;99987.09;5071278;28;20040;-85
2022/09/30 01:27:31;;;;;;;10.98;9.52;;;;;;;10.79;100.00;99978.88;5072075;28;20021;-85
2022/09/30 01:30:06;;;;;;;13.50;10.75;;;;;;;10.80;100.00;99983.19;5071907;28;20017;-84
2022/09/30 01:32:37;;;;;;;12.70;9.30;;;;;;;10.75;100.00;99987.09;5071857;28;20104;-84
2022/09/30 01:35:35;;;;;;;11.82;10.18;;;;;;;10.68;100.00;99982.31;5070241;28;20032;-84
2022/09/30 01:38:19;;;;;;;15.25;10.90;;;;;;;10.68;100.00;99979.69;5059122;28;20341;-84
2022/09/30 01:40:51;;;;;;;16.05;11.95;;;;;;;10.60;100.00;99984.66;5071473;28;20059;-84
2022/09/30 01:43:38;;;;;;;15.18;11.90;;;;;;;10.60;100.00;99975.94;5071834;28;20036;-84
2022/09/30 01:46:10;;;;;;;14.38;10.65;;;;;;;10.58;100.00;99989.19;5071825;28;20356;-84
2022/09/30 01:49:12;;;;;;;11.60;10.20;;;;;;;10.56;100.00;99987.63;5069855;28;20025;-84
2022/09/30 01:51:50;;;;;;;10.20;8.93;;;;;;;10.51;100.00;99988.81;5069542;28;20029;-84
2022/09/30 01:54:40;;;;;;;11.38;9.52;;;;;;;10.52;100.00;99994.91;5071277;28;20432;-84
2022/09/30 01:57:13;;;;;;;13.60;10.85;;;;;;;10.52;100.00;99989.66;5072042;28;20082;-84
2022/09/30 01:59:48;;;;;;;12.00;10.23;;;;;;;10.49;100.00;99989.88;5071462;28;20025;-85
2022/09/30 02:02:25;;;;;;;27.25;16.70;;;;;;;10.40;100.00;100001.06;5071450;28;20021;-85
2022/09/30 02:04:54;;;;;;;;;;;;;;;10.40;100.00;100003.69;5070946;28;20037;-84
2022/09/30 02:07:23;;;;;;;;;;;;;;;10.44;100.00;100002.50;5071750;28;19998;-85
2022/09/30 02:09:53;;;;;;;;;;;;;;;10.51;100.00;99999.31;5071717;28;19919;-85
2022/09/30 02:12:20;;;;;;;;;;;;;;;10.57;100.00;100003.28;5071818;28;19904;-84
2022/09/30 02:14:53;;;;;;;;;;;;;;;10.53;100.00;100007.09;5070667;28;19962;-85
2022/09/30 02:17:22;;;;;;;;;;;;;;;10.50;100.00;100002.06;5070634;28;19960;-85
2022/09/30 02:19:53;;;;;;;;;;;;;;;10.35;100.00;99993.53;5071579;28;20003;-85
2022/09/30 02:22:43;;;;;;;;;;;;;;;10.45;100.00;99988.44;5071933;28;19969;-85
2022/09/30 02:25:11;;;;;;;;;;;;;;;10.48;100.00;99980.31;5071854;28;19912;-84
2022/09/30 02:27:41;;;;;;;;;;;;;;;10.47;100.00;99981.28;5071818;28;19912;-84
2022/09/30 02:30:08;;;;;;;;;;;;;;;10.45;100.00;99983.19;5071632;28;20267;-85
2022/09/30 02:32:53;;;;;;;;;;;;;;;10.41;100.00;99979.13;5070545;28;19955;-85
2022/09/30 02:35:25;;;;;;;;;;;;;;;10.38;100.00;99984.59;5070861;28;19946;-84
2022/09/30 02:38:04;;;;;;;;;;;;;;;10.40;100.00;99975.66;5071551;28;19912;-85
2022/09/30 02:40:35;;;;;;;;;;;;;;;10.50;100.00;99983.69;5071727;28;20043;-84
2022/09/30 02:43:02;;;;;;;;;;;;;;;10.59;100.00;99983.00;5071671;28;19969;-84
2022/09/30 02:45:30;;;;;;;;;;;;;;;10.57;100.00;99977.03;5071681;28;19912;-84
2022/09/30 02:48:13;;;;;;;;;;;;;;;10.46;100.00;99980.44;5070415;28;20393;-85
2022/09/30 02:50:48;;;;;;;;;;;;;;;10.38;100.00;99971.47;5071617;28;19913;-84
2022/09/30 02:53:17;;;;;;;;;;;;;;;10.31;100.00;99960.59;5073071;28;19920;-84
2022/09/30 02:56:05;;;;;;;;;;;;;;;10.27;100.00;99965.19;5075205;28;19913;-84
2022/09/30 02:58:35;;;;;;;;;;;;;;;10.22;100.00;99962.06;5090836;28;19912;-84
2022/09/30 03:01:00;;;;;;;;;;;;;;;10.21;100.00;99965.66;5073868;28;20077;-85
2022/09/30 03:03:31;;;;;;;;;;;;;;;10.18;100.00;99970.28;5074953;28;19925;-84
2022/09/30 03:05:56;;;;;;;;;;;;;;;10.15;100.00;99960.00;5074999;28;19935;-84
2022/09/30 03:08:22;;;;;;;;;;;;;;;10.16;100.00;99961.69;5075131;28;20374;-84
2022/09/30 03:10:49;;;;;;;;;;;;;;;10.15;100.00;99952.13;5074984;28;19920;-84
2022/09/30 03:13:33;;;;;;;;;;;;;;;10.25;100.00;99945.28;5074653;28;20384;-84
2022/09/30 03:16:17;;;;;;;;;;;;;;;10.30;100.00;99949.25;5073528;28;19999;-84
2022/09/30 03:19:02;;;;;;;;;;;;;;;10.28;100.00;99948.50;5074588;28;19912;-84
2022/09/30 03:21:34;;;;;;;;;;;;;;;10.34;100.00;99944.59;5074420;28;19908;-84
2022/09/30 03:24:05;;;;;;;;;;;;;;;10.27;100.00;99944.22;5075050;28;19912;-84
2022/09/30 03:26:38;;;;;;;;;;;;;;;10.44;100.00;99944.75;5074466;28;19994;-84
2022/09/30 03:29:12;;;;;;;;;;;;;;;10.51;100.00;99943.38;5074539;28;19926;-84
2022/09/30 03:31:49;;;;;;;;;;;;;;;10.62;100.00;99953.88;5073515;28;19912;-85
2022/09/30 03:34:18;;;;;;;;;;;;;;;10.63;100.00;99952.94;5074371;28;20370;-84
2022/09/30 03:36:49;;;;;;;;;;;;;;;10.63;100.00;99947.69;5074380;28;20285;-85
2022/09/30 03:39:23;;;;;;;;;;;;;;;10.73;100.00;99954.88;5074098;28;19916;-85
2022/09/30 03:41:55;;;;;;;;;;;;;;;10.67;100.00;99962.25;5072477;28;19912;-84
2022/09/30 03:44:24;;;;;;;;;;;;;;;10.62;100.00;99953.03;5054112;28;19919;-84
2022/09/30 03:46:52;;;;;;;;;;;;;;;10.52;100.00;99951.13;5069947;28;19924;-85
2022/09/30 03:49:20;;;;;;;;;;;;;;;10.52;100.00;99958.16;5073909;28;20397;-84
2022/09/30 03:51:46;;;;;;;;;;;;;;;10.50;100.00;99962.69;5073758;28;19916;-84
2022/09/30 03:54:13;;;;;;;;;;;;;;;10.48;100.00;99956.69;5073849;28;19912;-84
2022/09/30 03:56:41;;;;;;;;;;;;;;;10.51;100.00;99948.63;5073815;28;19916;-85
2022/09/30 03:59:21;;;;;;;;;;;;;;;10.53;100.00;99951.97;5072547;28;19961;-84
2022/09/30 04:01:47;;;;;;;;;;;;;;;10.51;100.00;99954.69;5057491;28;19917;-85
2022/09/30 04:04:12;;;;;;;;;;;;;;;10.50;100.00;99950.41;5073448;28;19916;-85
2022/09/30 04:06:37;;;;;;;;;;;;;;;10.48;100.00;99956.69;5072256;28;19916;-84
2022/09/30 04:09:03;;;;;;;;;;;;;;;10.50;100.00;99966.16;5073641;28;19920;-85
2022/09/30 04:11:28;;;;;;;;;;;;;;;10.62;100.00;99958.28;5073633;28;19939;-85
2022/09/30 04:13:53;;;;;;;;;;;;;;;10.44;100.00;99966.59;5071829;28;19912;-85
2022/09/30 04:16:19;;;;;;;;;;;;;;;10.51;100.00;99959.13;5072894;28;20369;-84
2022/09/30 04:18:44;;;;;;;;;;;;;;;10.51;100.00;99957.31;5073036;28;20389;-84
2022/09/30 04:21:11;;;;;;;;;;;;;;;10.46;100.00;99953.34;5073418;28;19908;-84
2022/09/30 04:23:37;;;;;;;;;;;;;;;10.47;100.00;99949.78;5073584;28;20359;-84
2022/09/30 04:26:04;;;;;;;;;;;;;;;10.31;100.00;99953.56;5073427;28;19996;-84
2022/09/30 04:28:30;;;;;;;;;;;;;;;10.31;100.00;99948.31;5073232;28;20330;-85
2022/09/30 04:30:58;;;;;;;;;;;;;;;10.27;100.00;99946.84;5073380;28;19920;-85
2022/09/30 04:33:23;;;;;;;;;;;;;;;10.43;100.00;99941.31;5068265;28;19995;-85
2022/09/30 04:35:51;;;;;;;;;;;;;;;10.46;100.00;99940.22;5053284;28;19913;-85
2022/09/30 04:38:17;;;;;;;;;;;;;;;10.49;100.00;99935.59;5053032;28;19966;-85
2022/09/30 04:40:42;;;;;;;;;;;;;;;10.43;100.00;99941.31;5053125;28;19956;-84
2022/09/30 04:43:08;;;;;;;;;;;;;;;10.31;100.00;99943.06;5053270;28;19951;-85
2022/09/30 04:45:33;;;;;;;;;;;;;;;10.25;100.00;99942.66;5053048;28;20380;-85
2022/09/30 04:47:58;;;;;;;;;;;;;;;10.33;100.00;99948.19;5069759;28;19916;-85
2022/09/30 04:50:24;;;;;;;;;;;;;;;10.39;100.00;99946.91;5073092;28;19999;-85
2022/09/30 04:52:49;;;;;;;;;;;;;;;10.41;100.00;99945.00;5072819;28;20385;-85
2022/09/30 04:55:14;;;;;;;;;;;;;;;10.44;100.00;99950.00;5072876;28;19964;-84
2022/09/30 04:57:42;;;;;;;;;;;;;;;10.42;100.00;99937.00;5072976;28;19912;-84
2022/09/30 05:00:08;;;;;;;;;;;;;;;10.43;100.00;99937.84;5072884;28;19916;-85
2022/09/30 05:02:33;;;;;;;;;;;;;;;10.41;100.00;99940.59;5070415;28;19916;-84
2022/09/30 05:04:59;;;;;;;;;;;;;;;10.42;100.00;99921.25;5072679;28;19913;-85
2022/09/30 05:07:25;;;;;;;;;;;;;;;10.41;100.00;99929.25;5072830;28;19913;-85
2022/09/30 05:09:51;;;;;;;;;;;;;;;10.38;100.00;99922.44;5072455;28;20073;-84
2022/09/30 05:12:17;;;;;;;;;;;;;;;10.38;100.00;99924.22;5072684;28;19916;-85
2022/09/30 05:14:42;;;;;;;;;;;;;;;10.42;100.00;99928.28;5071279;28;20431;-85
2022/09/30 05:17:07;;;;;;;;;;;;;;;10.40;100.00;99923.16;5072128;28;19957;-84
2022/09/30 05:19:33;;;;;;;;;;;;;;;10.39;100.00;99915.41;5072467;28;19946;-85
2022/09/30 05:21:58;;;;;;;;;;;;;;;10.37;100.00;99906.78;5072352;28;20008;-84
2022/09/30 05:24:23;;;;;;;;;;;;;;;10.36;100.00;99910.38;5087971;28;19958;-85
2022/09/30 05:26:49;;;;;;;;;;;;;;;10.37;100.00;99914.66;5072328;28;19947;-84
2022/09/30 05:29:14;;;;;;;;;;;;;;;10.37;100.00;99906.78;5070931;28;19924;-84
2022/09/30 05:31:41;;;;;;;;;;;;;;;10.37;100.00;99906.78;5072478;28;19919;-84
2022/09/30 05:34:06;;;;;;;;;;;;;;;10.38;100.00;99903.22;5070999;28;19912;-84
2022/09/30 05:36:32;;;;;;;;;;;;;;;10.52;100.00;99897.78;5072298;28;19924;-84
2022/09/30 05:38:57;;;;;;;;;;;;;;;10.51;100.00;99893.50;5072286;28;19920;-84
2022/09/30 05:41:23;;;;;;;;;;;;;;;10.57;100.00;99886.94;5072210;28;19919;-84
2022/09/30 05:43:48;;;;;;;;;;;;;;;10.52;100.00;99882.88;5071005;28;19916;-84
2022/09/30 05:46:14;;;;;;;;;;;;;;;10.57;100.00;99877.28;5072251;28;19908;-85
2022/09/30 05:48:39;;;;;;;;;;;;;;;10.57;100.00;99865.94;5072083;28;19912;-84
2022/09/30 05:51:06;;;;;;;;;;;;;;;10.57;100.00;99866.78;5072194;28;19917;-84
2022/09/30 05:53:32;;;;;;;;;;;;;;;10.59;100.00;99864.88;5087511;28;19919;-85
2022/09/30 05:55:57;;;;;;;;;;;;;;;10.61;100.00;99857.69;5072137;28;19913;-85
2022/09/30 05:58:23;;;;;;;;;;;;;;;10.69;100.00;99860.56;5070686;28;19919;-85
2022/09/30 06:00:49;;;;;;;;;;;;;;;10.81;100.00;99864.03;5070215;28;19990;-84
2022/09/30 06:03:14;;;;;;;;;;;;;;;10.89;100.00;99871.31;5065680;28;19916;-84
2022/09/30 06:05:40;;;;;;;;;;;;;;;10.92;100.00;99865.84;5052058;28;20361;-84
2022/09/30 06:08:06;;;;;;;;;;;;;;;11.15;100.00;99878.97;5051994;28;19923;-85
2022/09/30 06:10:31;;;;;;;;;;;;;;;11.20;100.00;99877.63;5053758;28;20012;-85
2022/09/30 06:12:58;;;;;;;;;;;;;;;11.29;100.00;99876.06;5070569;28;19916;-85
2022/09/30 06:15:23;;;;;;;;;;;;;;;11.38;100.00;99888.50;5071666;28;19963;-85
2022/09/30 06:17:52;;;;;;;;;;;;;;;11.43;100.00;99881.09;5070987;28;19956;-85
2022/09/30 06:20:18;;;;;;;;;;;;;;;11.50;100.00;99870.91;5072062;28;19919;-85
2022/09/30 06:22:43;;;;;;;;;;;;;;;11.52;100.00;99877.69;5071750;28;20343;-85
2022/09/30 06:25:08;;;;;;;;;;;;;;;11.48;100.00;99860.50;5071707;28;19917;-85
2022/09/30 06:27:34;;;;;;;;;;;;;;;11.87;100.00;99863.50;5070776;28;19916;-86
2022/09/30 06:29:59;;;;;;;;;;;;;;;11.78;100.00;99851.06;5076374;28;19916;-86
2022/09/30 06:32:25;;;;;;;;;;;;;;;12.00;100.00;99855.44;5074296;28;19962;-86
2022/09/30 06:34:50;;;;;;;;;;;;;;;12.19;100.00;99854.75;5074617;28;19951;-87
2022/09/30 06:37:17;;;;;;;;;;;;;;;12.33;100.00;99853.59;5072276;28;19986;-86
2022/09/30 06:39:43;;;;;;;;;;;;;;;12.41;100.00;99837.97;5074262;28;19916;-86
2022/09/30 06:42:10;;;;;;;;;;;;;;;12.56;100.00;99843.75;5073188;28;20041;-86
2022/09/30 06:44:35;;;;;;;;;;;;;;;12.72;100.00;99845.06;5073456;28;19916;-87
2022/09/30 06:47:00;;;;;;;;;;;;;;;12.76;100.00;99849.13;5073993;28;19916;-86
2022/09/30 06:49:26;;;;;;;;;;;;;;;12.85;100.00;99849.13;5074410;28;19955;-85
2022/09/30 06:51:51;;;;;;;;;;;;;;;12.85;100.00;99841.22;5071972;28;19916;-85
2022/09/30 06:54:18;;;;;;;;;;;;;;;13.16;100.00;99851.75;5072538;28;19917;-85
2022/09/30 06:56:44;;;;;;;;;;;;;;;13.08;100.00;99852.41;5074533;28;19921;-85
2022/09/30 06:59:09;;;;;;;;;;;;;;;13.26;100.00;99846.50;5074465;28;19931;-91
2022/09/30 07:01:35;;;;;;;;;;;;;;;13.59;100.00;99847.16;5069473;28;20003;-93
2022/09/30 07:04:06;;;;;;;;;;;;;;;13.84;100.00;99843.97;5077627;28;19931;-86
2022/09/30 07:06:32;;;;;;;;;;;;;;;14.12;100.00;99843.25;5072659;28;19916;-85
2022/09/30 07:08:57;;;;;;;;;;;;;;;14.11;100.00;99842.41;5073454;28;19962;-86
2022/09/30 07:11:23;;;;;;;;;;;;;;;14.56;100.00;99835.66;5073800;28;19912;-86
2022/09/30 07:13:48;;;;;;;;;;;;;;;14.80;100.00;99827.25;5074104;28;20317;-86
2022/09/30 07:16:16;;;;;;;11.70;10.20;;;;;;;14.97;100.00;99815.06;5072561;28;19927;-86
2022/09/30 07:18:44;;;;;;;14.50;9.43;;;;;;;15.67;98.17;99817.97;5074062;28;20074;-86
2022/09/30 07:21:12;;;;;;;10.23;8.00;;;;;;;16.77;95.28;99823.72;5071194;28;20020;-86
2022/09/30 07:23:44;;;;;;;11.00;8.23;;;;;;;16.42;96.20;99817.56;5072809;28;20119;-89
2022/09/30 07:26:09;;;;;;;;;;;;;;;16.15;98.00;99823.84;5071514;28;20067;-87
2022/09/30 07:28:37;;;;;;;9.80;8.13;;;;;;;15.88;98.89;99817.69;5070854;28;19924;-86
2022/09/30 07:31:07;;;;;;;;;;;;;;;15.72;99.36;99818.34;5074104;28;20032;-86
2022/09/30 07:33:34;;;;;;;;;;;;;;;15.42;99.73;99804.50;5073826;28;19924;-87
2022/09/30 07:35:59;;;;;;;;;;;;;;;15.25;99.23;99807.97;5074004;28;19916;-87
2022/09/30 07:38:27;;;;;;;;;;;;;;;15.15;99.29;99809.84;5072768;28;19985;-87
2022/09/30 07:40:53;;;;;;;;;;;;;;;14.93;100.00;99803.13;5071264;28;20003;-86
2022/09/30 07:43:19;;;;;;;;;;;;;;;14.64;100.00;99809.38;5075737;28;19978;-87
2022/09/30 07:45:45;;;;;;;;;;;;;;;14.62;100.00;99808.69;5074074;28;19917;-86
2022/09/30 07:48:38;;;;;;;;;;;;;;;14.50;100.00;99805.38;5073990;28;20415;-86
2022/09/30 07:50:56;;;;;;;;;;;;;;;14.67;100.00;99809.94;5074004;28;20348;-87
2022/09/30 07:53:21;;;;;;;;;;;;;;;14.67;100.00;99817.00;5073976;28;20020;-86
2022/09/30 07:55:46;;;;;;;;;;;;;;;14.80;100.00;99811.41;5074184;28;19960;-86
2022/09/30 07:58:12;;;;;;;;;;;;;;;14.87;100.00;99804.56;5073734;28;20018;-86
2022/09/30 08:00:37;;;;;;;;;;;;;;;14.64;100.00;99807.56;5072356;28;19999;-86
2022/09/30 08:03:03;;;;;;;;;;;;;;;15.16;99.94;99806.19;5072632;28;20019;-86
2022/09/30 08:05:28;;;;;;;;;;;;;;;15.34;99.54;99801.75;5073918;28;20339;-86
2022/09/30 08:07:53;;;;;;;;;;;;;;;15.50;98.32;99803.75;5073820;28;20278;-86
2022/09/30 08:10:19;;;;;;;;;;;;;;;15.77;98.09;99794.91;5073988;28;19904;-86
2022/09/30 08:12:44;;;;;;;;;;;;;;;15.83;97.18;99789.00;5073581;28;20323;-86
2022/09/30 08:15:09;;;;;;;;;;;;;;;15.61;97.82;99784.16;5072428;28;19916;-86
2022/09/30 08:17:35;;;;;;;;;;;;;;;15.62;97.88;99778.72;5073617;28;19912;-86
2022/09/30 08:20:00;;;;;;;;;;;;;;;15.75;97.82;99786.28;5073473;28;19916;-86
2022/09/30 08:22:27;;;;;;;;;;;;;;;15.47;99.05;99789.00;5073343;28;19920;-86
2022/09/30 08:24:52;;;;;;;;;;;;;;;15.69;97.94;99791.34;5073538;28;19908;-86
2022/09/30 08:27:17;;;;;;;;;;;;;;;15.65;98.10;99785.53;5073373;28;19927;-86
2022/09/30 08:29:42;;;;;;;;;;;;;;;15.56;98.33;99771.41;5073142;28;19922;-87
2022/09/30 08:32:08;;;;;;;;;;;;;;;15.45;99.90;99768.97;5073309;28;20170;-86
2022/09/30 08:34:34;;;;;;;;;;;;;;;15.69;98.67;99765.72;5073230;28;19916;-86
2022/09/30 08:37:00;;;;;;;;;;;;;;;15.71;97.72;99773.50;5071967;28;20377;-86
2022/09/30 08:39:25;;;;;;;;;;;;;;;15.57;98.29;99772.22;5073106;28;19916;-86
2022/09/30 08:42:03;;;;;;;;;;;;;;;15.94;97.46;99763.28;5073212;28;20019;-86
2022/09/30 08:44:28;;;;;;;;;;;;;;;16.15;96.28;99763.78;5073008;28;19917;-86
2022/09/30 08:46:59;;;;;;;;;;;;;;;16.20;96.69;99755.34;5073053;28;19916;-86
2022/09/30 08:49:31;;;;;;;;;;;;;;;16.37;95.27;99746.50;5072747;28;20267;-84
2022/09/30 08:51:58;;;;;;;;;;;;;;;16.46;94.27;99748.19;5072301;28;20424;-86
2022/09/30 08:54:28;;;;;;;8.00;4.50;;;;;;;16.30;94.96;99747.28;5072480;28;19928;-86
2022/09/30 08:56:54;;;;;;;6.57;4.55;;;;;;;16.15;94.43;99747.03;5072568;28;20024;-86
2022/09/30 08:59:27;;;;;;;7.60;5.15;;;;;;;16.35;94.49;99748.50;5072408;28;20111;-86
2022/09/30 09:02:17;;;;;;;6.85;4.88;;;;;;;16.31;93.59;99746.28;5072384;28;20044;-86
2022/09/30 09:04:44;;;;;;;5.45;4.13;;;;;;;16.08;95.71;99749.47;5071872;28;20398;-86
2022/09/30 09:07:30;;;;;;;8.15;4.80;;;;;;;16.11;96.49;99738.56;5072157;28;20025;-86
2022/09/30 09:10:09;;;;;;;5.72;3.97;;;;;;;16.15;94.91;99739.09;5070906;28;20555;-84
2022/09/30 09:12:47;;;;;;;9.02;4.80;;;;;;;15.94;96.71;99726.22;5072047;28;20450;-84
2022/09/30 09:15:25;;;;;;;;;;;;;;;15.66;97.03;99723.69;5072476;28;20039;-84
2022/09/30 09:17:50;;;;;;;;;;;;;;;15.76;96.95;99729.75;5072472;28;19912;-84
2022/09/30 09:20:17;;;;;;;;;;;;;;;15.77;97.14;99725.28;5072567;28;20819;-84
2022/09/30 09:22:47;;;;;;;;;;;;;;;15.86;96.55;99724.34;5072497;28;19912;-86
2022/09/30 09:25:14;;;;;;;;;;;;;;;15.71;97.60;99717.91;5072497;28;19920;-86
2022/09/30 09:27:59;;;;;;;;;;;;;;;15.57;98.32;99724.59;5072271;28;20387;-86
2022/09/30 09:30:25;;;;;;;;;;;;;;;15.76;97.34;99719.16;5072318;28;20324;-86
2022/09/30 09:32:51;;;;;;;;;;;;;;;15.84;97.46;99716.56;5072242;28;20003;-86
2022/09/30 09:35:35;;;;;;;;;;;;;;;16.11;95.82;99711.25;5072276;28;20004;-86
2022/09/30 09:38:24;;;;;;;;;;;;;;;16.38;95.92;99708.41;5070868;28;19919;-86
2022/09/30 09:41:01;;;;;;;;;;;;;;;16.42;94.63;99711.59;5072090;28;19912;-86
2022/09/30 09:43:33;;;;;;;;;;;;;;;16.55;94.30;99714.63;5072432;28;19912;-86
2022/09/30 09:46:01;;;;;;;;;;;;;;;16.71;93.38;99705.06;5072249;28;19912;-86
2022/09/30 09:48:28;;;;;;;;;;;;;;;16.85;92.43;99721.22;5072123;28;20015;-84
2022/09/30 09:50:56;;;;;;;;;;;;;;;17.14;92.35;99709.34;5072239;28;19954;-84
2022/09/30 09:53:35;;;;;;;;;;;;;;;17.51;89.54;99707.19;5072009;28;19916;-84
2022/09/30 09:56:02;;;;;;;;;;;;;;;17.48;91.13;99710.19;5072119;28;19912;-85
2022/09/30 09:58:28;;;;;;;;;;;;;;;17.22;91.83;99698.75;5072115;28;19920;-85
2022/09/30 10:01:10;;;;;;;;;;;;;;;17.36;91.61;99713.19;5072073;28;20297;-85
2022/09/30 10:03:36;;;;;;;;;;;;;;;17.31;91.90;99702.22;5076224;28;19953;-85
2022/09/30 10:06:06;;;;;;;;;;;;;;;17.60;91.65;99692.94;5075986;28;19919;-85
2022/09/30 10:08:33;;;;;;;;;;;;;;;17.42;91.81;99679.84;5075913;28;19908;-85
2022/09/30 10:11:02;;;;;;;;;;;;;;;17.40;91.70;99669.38;5076212;28;19977;-85
2022/09/30 10:13:45;;;;;;;;;;;;;;;17.32;92.09;99680.00;5075990;28;19961;-85
2022/09/30 10:16:23;;;;;;;;;;;;;;;17.15;92.92;99676.50;5074632;28;20365;-86
2022/09/30 10:18:48;;;;;;;;;;;;;;;17.45;92.12;99666.22;5075846;28;19909;-84
2022/09/30 10:21:20;;;;;;;;;;;;;;;17.37;93.12;99650.31;5075800;28;19912;-85
2022/09/30 10:23:46;;;;;;;;;;;;;;;17.45;92.28;99652.94;5075696;28;20382;-85
2022/09/30 10:26:14;;;;;;;;;;;;;;;17.60;91.98;99653.13;5075920;28;19919;-85
2022/09/30 10:28:50;;;;;;;;;;;;;;;17.60;92.11;99647.81;5075504;28;19908;-85
2022/09/30 10:31:25;;;;;;;;;;;;;;;17.47;92.11;99640.34;5075699;28;19954;-85
2022/09/30 10:34:11;;;;;;;;;;;;;;;17.62;92.22;99621.94;5075448;28;19917;-85
2022/09/30 10:36:39;;;;;;;;;;;;;;;17.59;92.21;99623.06;5075504;28;19916;-85
2022/09/30 10:39:06;;;;;;;;;;;;;;;17.69;90.98;99614.91;5074203;28;19909;-87
2022/09/30 10:41:33;;;;;;;;;;;;;;;18.46;88.93;99611.66;5075528;28;19912;-87
2022/09/30 10:43:59;;;;;;;;;;;;;;;18.48;87.80;99609.66;5075511;28;19944;-87
2022/09/30 10:46:44;;;;;;;;;;;;;;;18.61;86.57;99609.91;5074040;28;19913;-87
2022/09/30 10:49:10;;;;;;;;;;;;;;;18.80;86.39;99598.03;5075226;28;20415;-87
2022/09/30 10:51:36;;;;;;;;;;;;;;;18.76;86.85;99585.22;5074140;28;19934;-87
2022/09/30 10:54:03;;;;;;;;;;;;;;;18.57;87.12;99578.56;5075402;28;19958;-87
2022/09/30 10:56:50;;;;;;;;;;;;;;;19.06;85.13;99577.41;5075721;28;19912;-87
2022/09/30 10:59:42;;;;;;;;;;;;;;;19.31;84.24;99589.47;5074987;28;19935;-87
2022/09/30 11:02:20;;;;;;;;;;;;;;;19.24;85.63;99587.72;5074742;28;20421;-87
2022/09/30 11:04:58;;;;;;;;;;;;;;;19.48;84.31;99591.97;5075200;28;19951;-86
2022/09/30 11:07:25;;;;;;;;;;;;;;;18.72;87.21;99581.25;5073536;28;19913;-87
2022/09/30 11:09:57;;;;;;;;;;;;;;;18.87;86.58;99571.53;5074824;28;19912;-87
2022/09/30 11:12:27;;;;;;;;;;;;;;;19.27;85.51;99571.38;5073641;28;19908;-87
2022/09/30 11:14:53;;;;;;;;;;;;;;;19.04;86.09;99558.94;5074038;28;19920;-87
2022/09/30 11:17:21;;;;;;;;;;;;;;;19.08;86.21;99551.44;5074864;28;19913;-87
2022/09/30 11:20:07;;;;;;;;;;;;;;;18.99;86.69;99550.66;5074598;28;19912;-87
2022/09/30 11:22:38;;;;;;;;;;;;;;;18.57;87.94;99563.41;5074824;28;19943;-87
2022/09/30 11:25:03;;;;;;;;;;;;;;;18.29;90.70;99567.59;5074804;28;19954;-87
2022/09/30 11:27:37;;;;;;;;;;;;;;;18.18;92.14;99553.69;5074648;28;19955;-87
2022/09/30 11:30:14;;;;;;;;;;;;;;;18.22;91.63;99541.69;5074543;28;20290;-87
2022/09/30 11:32:39;;;;;;;;;;;;;;;19.16;88.63;99540.72;5074335;28;19916;-85
2022/09/30 11:35:05;;;;;;;;;;;;;;;18.88;89.08;99532.47;5074452;28;20259;-85
2022/09/30 11:37:30;;;;;;;;;;;;;;;18.65;90.44;99525.31;5074475;28;19960;-85
2022/09/30 11:40:07;;;;;;;;;;;;;;;18.36;92.20;99520.69;5072951;28;20370;-85
2022/09/30 11:42:42;;;;;;;;;;;;;;;18.42;92.30;99520.00;5073115;28;19922;-85
2022/09/30 11:45:23;;;;;;;;;;;;;;;18.82;91.57;99518.06;5074192;28;19934;-86
2022/09/30 11:48:14;;;;;;;;;;;;;;;18.34;94.08;99520.88;5074249;28;20258;-85
2022/09/30 11:50:52;;;;;;;;;;;;;;;17.96;95.32;99517.28;5074241;28;20007;-85
2022/09/30 11:53:20;;;;;;;;;;;;;;;18.00;98.05;99514.09;5074245;28;19916;-85
2022/09/30 11:55:46;;;;;;;;;;;;;;;18.22;96.91;99517.78;5074148;28;20352;-85
2022/09/30 11:58:22;;;;;;;;;;;;;;;18.46;96.99;99515.16;5073832;28;19955;-85
2022/09/30 12:01:00;;;;;;;;;;;;;;;17.86;99.82;99508.72;5073814;28;19917;-87
2022/09/30 12:03:32;;;;;;;;;;;;;;;17.76;99.95;99501.75;5073880;28;20293;-85
2022/09/30 12:06:01;;;;;;;;;;;;;;;18.00;99.36;99506.13;5073943;28;19916;-85
2022/09/30 12:08:33;;;;;;;;;;;;;;;17.76;100.00;99516.84;5073759;28;19963;-85
2022/09/30 12:11:01;;;;;;;;;;;;;;;17.58;100.00;99504.63;5073641;28;20382;-85
2022/09/30 12:13:42;;;;;;;;;;;;;;;17.24;100.00;99495.13;5072145;28;20331;-85
2022/09/30 12:16:11;;;;;;;;;;;;;;;17.70;100.00;99486.50;5073501;28;20011;-84
2022/09/30 12:18:40;;;;;;;;;;;;;;;17.38;100.00;99485.63;5073026;28;20366;-87
2022/09/30 12:21:08;;;;;;;;;;;;;;;17.36;100.00;99490.28;5071423;28;19955;-84
2022/09/30 12:23:42;;;;;;;;;;;;;;;16.74;100.00;99504.09;5064017;28;19913;-84
2022/09/30 12:26:10;;;;;;;;;;;;;;;16.90;100.00;99494.50;5069474;28;19939;-83
2022/09/30 12:31:30;;;;;;;;;;;;;;;17.05;100.00;99485.72;5071571;28;19971;-85
2022/09/30 12:33:55;;;;;;;;;;;;;;;16.87;100.00;99468.34;5071375;28;20373;-85
2022/09/30 12:36:20;;;;;;;;;;;;;;;17.24;100.00;99459.81;5063599;28;19963;-85
2022/09/30 12:38:57;;;;;;;;;;;;;;;17.15;100.00;99455.53;5064245;28;19920;-85
2022/09/30 12:41:23;;;;;;;;;;;;;;;16.77;100.00;99460.53;5069368;28;20358;-85